sensor_id;sensor_type;location;lat;lon;timestamp;P1;durP1;ratioP1;P2;durP2;ratioP2
70369;SDS011;57790;51.356;-2.906;2023-03-23T00:00:28;8.53;;;1.30;;
70369;SDS011;57790;51.356;-2.906;2023-03-23T00:03:28;10.57;;;1.25;;
70369;SDS011;57790;51.356;-2.906;2023-03-23T00:06:31;14.83;;;1.40;;
70369;SDS011;57790;51.356;-2.906;2023-03-23T00:09:34;12.15;;;1.35;;
70369;SDS011;57790;51.356;-2.906;2023-03-23T00:12:40;8.45;;;1.00;;
70369;SDS011;57790;51.356;-2.906;2023-03-23T00:15:42;9.90;;;1.20;;
70369;SDS011;57790;51.356;-2.906;2023-03-23T00:18:44;10.57;;;1.10;;
70369;SDS011;57790;51.356;-2.906;2023-03-23T00:21:45;11.97;;;1.10;;
70369;SDS011;57790;51.356;-2.906;2023-03-23T00:24:46;8.43;;;1.40;;
70369;SDS011;57790;51.356;-2.906;2023-03-23T00:27:48;7.53;;;1.17;;
70369;SDS011;57790;51.356;-2.906;2023-03-23T00:30:48;9.90;;;1.13;;
70369;SDS011;57790;51.356;-2.906;2023-03-23T00:33:48;12.93;;;1.57;;
70369;SDS011;57790;51.356;-2.906;2023-03-23T00:36:50;9.23;;;1.20;;
70369;SDS011;57790;51.356;-2.906;2023-03-23T00:39:56;9.63;;;1.08;;
70369;SDS011;57790;51.356;-2.906;2023-03-23T00:42:57;12.27;;;1.10;;
70369;SDS011;57790;51.356;-2.906;2023-03-23T00:45:58;10.25;;;1.08;;
70369;SDS011;57790;51.356;-2.906;2023-03-23T00:49:00;9.77;;;1.17;;
70369;SDS011;57790;51.356;-2.906;2023-03-23T00:52:01;10.67;;;1.17;;
70369;SDS011;57790;51.356;-2.906;2023-03-23T00:55:03;8.10;;;0.93;;
70369;SDS011;57790;51.356;-2.906;2023-03-23T00:58:04;9.13;;;1.07;;
70369;SDS011;57790;51.356;-2.906;2023-03-23T01:01:04;8.67;;;1.07;;
70369;SDS011;57790;51.356;-2.906;2023-03-23T01:04:05;11.35;;;1.13;;
70369;SDS011;57790;51.356;-2.906;2023-03-23T01:07:06;12.43;;;1.48;;
70369;SDS011;57790;51.356;-2.906;2023-03-23T01:10:08;7.80;;;1.53;;
70369;SDS011;57790;51.356;-2.906;2023-03-23T01:13:08;9.77;;;1.20;;
70369;SDS011;57790;51.356;-2.906;2023-03-23T01:16:09;8.80;;;1.13;;
70369;SDS011;57790;51.356;-2.906;2023-03-23T01:19:10;7.65;;;1.40;;
70369;SDS011;57790;51.356;-2.906;2023-03-23T01:22:11;10.50;;;1.55;;
70369;SDS011;57790;51.356;-2.906;2023-03-23T01:25:12;8.70;;;1.40;;
70369;SDS011;57790;51.356;-2.906;2023-03-23T01:28:13;10.00;;;1.50;;
70369;SDS011;57790;51.356;-2.906;2023-03-23T01:31:15;13.90;;;1.53;;
70369;SDS011;57790;51.356;-2.906;2023-03-23T01:34:17;8.60;;;1.15;;
70369;SDS011;57790;51.356;-2.906;2023-03-23T01:37:17;7.23;;;1.00;;
70369;SDS011;57790;51.356;-2.906;2023-03-23T01:40:19;11.85;;;1.98;;
70369;SDS011;57790;51.356;-2.906;2023-03-23T01:43:20;10.03;;;1.50;;
70369;SDS011;57790;51.356;-2.906;2023-03-23T01:46:20;10.17;;;1.00;;
70369;SDS011;57790;51.356;-2.906;2023-03-23T01:49:26;11.73;;;1.27;;
70369;SDS011;57790;51.356;-2.906;2023-03-23T01:52:30;10.98;;;1.30;;
70369;SDS011;57790;51.356;-2.906;2023-03-23T01:55:30;8.33;;;1.20;;
70369;SDS011;57790;51.356;-2.906;2023-03-23T01:58:31;9.82;;;1.50;;
70369;SDS011;57790;51.356;-2.906;2023-03-23T02:01:33;9.25;;;0.90;;
70369;SDS011;57790;51.356;-2.906;2023-03-23T02:04:38;7.50;;;1.10;;
70369;SDS011;57790;51.356;-2.906;2023-03-23T02:07:40;6.38;;;1.13;;
70369;SDS011;57790;51.356;-2.906;2023-03-23T02:10:41;10.93;;;1.10;;
70369;SDS011;57790;51.356;-2.906;2023-03-23T02:13:42;8.43;;;1.03;;
70369;SDS011;57790;51.356;-2.906;2023-03-23T02:16:55;10.90;;;1.25;;
70369;SDS011;57790;51.356;-2.906;2023-03-23T02:23:26;9.82;;;1.05;;
70369;SDS011;57790;51.356;-2.906;2023-03-23T02:33:36;9.88;;;1.42;;
70369;SDS011;57790;51.356;-2.906;2023-03-23T02:40:03;10.40;;;1.15;;
70369;SDS011;57790;51.356;-2.906;2023-03-23T02:43:13;6.10;;;0.93;;
70369;SDS011;57790;51.356;-2.906;2023-03-23T02:46:15;8.80;;;0.93;;
70369;SDS011;57790;51.356;-2.906;2023-03-23T02:49:16;8.45;;;1.05;;
70369;SDS011;57790;51.356;-2.906;2023-03-23T02:52:20;11.68;;;1.50;;
70369;SDS011;57790;51.356;-2.906;2023-03-23T02:55:24;10.02;;;1.40;;
70369;SDS011;57790;51.356;-2.906;2023-03-23T02:58:28;9.32;;;1.10;;
70369;SDS011;57790;51.356;-2.906;2023-03-23T03:04:32;9.77;;;1.20;;
70369;SDS011;57790;51.356;-2.906;2023-03-23T03:07:44;10.63;;;1.40;;
70369;SDS011;57790;51.356;-2.906;2023-03-23T03:11:14;8.07;;;1.05;;
70369;SDS011;57790;51.356;-2.906;2023-03-23T03:14:19;6.10;;;0.98;;
70369;SDS011;57790;51.356;-2.906;2023-03-23T03:17:24;9.30;;;1.17;;
70369;SDS011;57790;51.356;-2.906;2023-03-23T03:20:26;8.90;;;1.10;;
70369;SDS011;57790;51.356;-2.906;2023-03-23T03:23:29;8.70;;;1.15;;
70369;SDS011;57790;51.356;-2.906;2023-03-23T03:26:32;8.85;;;1.15;;
70369;SDS011;57790;51.356;-2.906;2023-03-23T03:29:35;10.40;;;1.10;;
70369;SDS011;57790;51.356;-2.906;2023-03-23T03:32:43;9.33;;;1.10;;
70369;SDS011;57790;51.356;-2.906;2023-03-23T03:35:48;8.70;;;1.00;;
70369;SDS011;57790;51.356;-2.906;2023-03-23T03:38:50;8.65;;;1.20;;
70369;SDS011;57790;51.356;-2.906;2023-03-23T03:41:50;9.63;;;0.90;;
70369;SDS011;57790;51.356;-2.906;2023-03-23T03:44:51;9.07;;;1.03;;
70369;SDS011;57790;51.356;-2.906;2023-03-23T03:47:52;8.90;;;1.00;;
70369;SDS011;57790;51.356;-2.906;2023-03-23T03:50:52;8.10;;;0.80;;
70369;SDS011;57790;51.356;-2.906;2023-03-23T03:53:56;8.52;;;1.13;;
70369;SDS011;57790;51.356;-2.906;2023-03-23T03:56:57;8.00;;;1.00;;
70369;SDS011;57790;51.356;-2.906;2023-03-23T03:59:57;6.35;;;0.88;;
70369;SDS011;57790;51.356;-2.906;2023-03-23T04:02:58;9.77;;;1.10;;
70369;SDS011;57790;51.356;-2.906;2023-03-23T04:05:59;9.03;;;1.20;;
70369;SDS011;57790;51.356;-2.906;2023-03-23T04:09:03;7.07;;;1.10;;
70369;SDS011;57790;51.356;-2.906;2023-03-23T04:12:06;10.30;;;1.27;;
70369;SDS011;57790;51.356;-2.906;2023-03-23T04:15:06;8.00;;;1.20;;
70369;SDS011;57790;51.356;-2.906;2023-03-23T04:18:07;8.30;;;0.83;;
70369;SDS011;57790;51.356;-2.906;2023-03-23T04:21:09;10.40;;;1.00;;
70369;SDS011;57790;51.356;-2.906;2023-03-23T04:24:10;9.60;;;1.00;;
70369;SDS011;57790;51.356;-2.906;2023-03-23T04:27:10;9.20;;;1.20;;
70369;SDS011;57790;51.356;-2.906;2023-03-23T04:30:13;9.13;;;1.35;;
70369;SDS011;57790;51.356;-2.906;2023-03-23T04:33:13;9.48;;;1.25;;
70369;SDS011;57790;51.356;-2.906;2023-03-23T04:36:14;11.93;;;1.00;;
70369;SDS011;57790;51.356;-2.906;2023-03-23T04:39:15;6.30;;;1.00;;
70369;SDS011;57790;51.356;-2.906;2023-03-23T04:42:16;7.77;;;1.10;;
70369;SDS011;57790;51.356;-2.906;2023-03-23T04:45:18;9.07;;;1.40;;
70369;SDS011;57790;51.356;-2.906;2023-03-23T04:48:24;7.90;;;1.07;;
70369;SDS011;57790;51.356;-2.906;2023-03-23T04:51:26;9.55;;;1.65;;
70369;SDS011;57790;51.356;-2.906;2023-03-23T04:54:28;8.40;;;1.17;;
70369;SDS011;57790;51.356;-2.906;2023-03-23T04:57:29;11.63;;;1.30;;
70369;SDS011;57790;51.356;-2.906;2023-03-23T05:00:29;11.38;;;1.20;;
70369;SDS011;57790;51.356;-2.906;2023-03-23T05:03:30;9.83;;;1.43;;
70369;SDS011;57790;51.356;-2.906;2023-03-23T05:06:30;6.47;;;0.90;;
70369;SDS011;57790;51.356;-2.906;2023-03-23T05:09:31;9.02;;;1.05;;
70369;SDS011;57790;51.356;-2.906;2023-03-23T05:12:31;11.10;;;1.13;;
70369;SDS011;57790;51.356;-2.906;2023-03-23T05:15:32;7.63;;;1.10;;
70369;SDS011;57790;51.356;-2.906;2023-03-23T05:18:32;11.90;;;1.03;;
70369;SDS011;57790;51.356;-2.906;2023-03-23T05:21:33;12.15;;;1.35;;
70369;SDS011;57790;51.356;-2.906;2023-03-23T05:24:34;17.63;;;1.83;;
70369;SDS011;57790;51.356;-2.906;2023-03-23T05:27:35;11.57;;;1.03;;
70369;SDS011;57790;51.356;-2.906;2023-03-23T05:30:36;11.20;;;1.57;;
70369;SDS011;57790;51.356;-2.906;2023-03-23T05:33:38;10.83;;;1.70;;
70369;SDS011;57790;51.356;-2.906;2023-03-23T05:36:38;11.77;;;1.08;;
70369;SDS011;57790;51.356;-2.906;2023-03-23T05:39:39;10.47;;;1.20;;
70369;SDS011;57790;51.356;-2.906;2023-03-23T05:42:40;14.47;;;1.73;;
70369;SDS011;57790;51.356;-2.906;2023-03-23T05:45:41;13.00;;;1.52;;
70369;SDS011;57790;51.356;-2.906;2023-03-23T05:48:41;10.07;;;1.00;;
70369;SDS011;57790;51.356;-2.906;2023-03-23T05:51:45;10.30;;;1.10;;
70369;SDS011;57790;51.356;-2.906;2023-03-23T05:54:46;6.35;;;0.98;;
70369;SDS011;57790;51.356;-2.906;2023-03-23T05:57:46;10.53;;;2.00;;
70369;SDS011;57790;51.356;-2.906;2023-03-23T06:00:47;9.80;;;1.20;;
70369;SDS011;57790;51.356;-2.906;2023-03-23T06:03:47;10.83;;;1.37;;
70369;SDS011;57790;51.356;-2.906;2023-03-23T06:06:51;8.55;;;1.08;;
70369;SDS011;57790;51.356;-2.906;2023-03-23T06:09:52;14.47;;;1.60;;
70369;SDS011;57790;51.356;-2.906;2023-03-23T06:12:52;15.02;;;1.27;;
70369;SDS011;57790;51.356;-2.906;2023-03-23T06:15:56;11.60;;;1.60;;
70369;SDS011;57790;51.356;-2.906;2023-03-23T06:18:57;10.07;;;1.35;;
70369;SDS011;57790;51.356;-2.906;2023-03-23T06:22:00;16.02;;;1.75;;
70369;SDS011;57790;51.356;-2.906;2023-03-23T06:25:02;11.17;;;1.10;;
70369;SDS011;57790;51.356;-2.906;2023-03-23T06:28:02;13.85;;;1.80;;
70369;SDS011;57790;51.356;-2.906;2023-03-23T06:31:04;12.83;;;1.57;;
70369;SDS011;57790;51.356;-2.906;2023-03-23T06:34:06;14.63;;;1.70;;
70369;SDS011;57790;51.356;-2.906;2023-03-23T06:37:08;8.37;;;1.53;;
70369;SDS011;57790;51.356;-2.906;2023-03-23T06:40:09;9.23;;;1.50;;
70369;SDS011;57790;51.356;-2.906;2023-03-23T06:43:10;12.95;;;1.60;;
70369;SDS011;57790;51.356;-2.906;2023-03-23T06:46:10;9.73;;;1.20;;
70369;SDS011;57790;51.356;-2.906;2023-03-23T06:49:11;13.33;;;1.70;;
70369;SDS011;57790;51.356;-2.906;2023-03-23T06:52:11;10.82;;;1.58;;
70369;SDS011;57790;51.356;-2.906;2023-03-23T06:55:12;13.83;;;1.73;;
70369;SDS011;57790;51.356;-2.906;2023-03-23T06:58:13;12.63;;;1.67;;
70369;SDS011;57790;51.356;-2.906;2023-03-23T07:01:14;13.80;;;1.53;;
70369;SDS011;57790;51.356;-2.906;2023-03-23T07:04:15;16.65;;;2.08;;
70369;SDS011;57790;51.356;-2.906;2023-03-23T07:07:16;11.77;;;1.55;;
70369;SDS011;57790;51.356;-2.906;2023-03-23T07:10:18;11.57;;;1.17;;
70369;SDS011;57790;51.356;-2.906;2023-03-23T07:13:19;13.73;;;1.53;;
70369;SDS011;57790;51.356;-2.906;2023-03-23T07:16:20;13.32;;;1.48;;
70369;SDS011;57790;51.356;-2.906;2023-03-23T07:19:21;14.07;;;1.58;;
70369;SDS011;57790;51.356;-2.906;2023-03-23T07:22:21;12.83;;;1.60;;
70369;SDS011;57790;51.356;-2.906;2023-03-23T07:25:21;9.73;;;1.53;;
70369;SDS011;57790;51.356;-2.906;2023-03-23T07:28:22;16.57;;;2.33;;
70369;SDS011;57790;51.356;-2.906;2023-03-23T07:31:23;13.90;;;1.80;;
70369;SDS011;57790;51.356;-2.906;2023-03-23T07:34:23;14.20;;;1.67;;
70369;SDS011;57790;51.356;-2.906;2023-03-23T07:37:24;14.90;;;1.77;;
70369;SDS011;57790;51.356;-2.906;2023-03-23T07:40:25;10.88;;;1.20;;
70369;SDS011;57790;51.356;-2.906;2023-03-23T07:43:26;14.60;;;1.77;;
70369;SDS011;57790;51.356;-2.906;2023-03-23T07:46:27;13.10;;;1.50;;
70369;SDS011;57790;51.356;-2.906;2023-03-23T07:49:27;20.97;;;1.57;;
70369;SDS011;57790;51.356;-2.906;2023-03-23T07:52:28;13.32;;;1.70;;
70369;SDS011;57790;51.356;-2.906;2023-03-23T07:55:32;12.15;;;1.50;;
70369;SDS011;57790;51.356;-2.906;2023-03-23T07:58:33;10.97;;;1.43;;
70369;SDS011;57790;51.356;-2.906;2023-03-23T08:01:33;10.23;;;1.33;;
70369;SDS011;57790;51.356;-2.906;2023-03-23T08:04:34;12.00;;;1.67;;
70369;SDS011;57790;51.356;-2.906;2023-03-23T08:07:37;13.33;;;1.70;;
70369;SDS011;57790;51.356;-2.906;2023-03-23T08:10:37;14.80;;;1.52;;
70369;SDS011;57790;51.356;-2.906;2023-03-23T08:13:38;11.83;;;1.50;;
70369;SDS011;57790;51.356;-2.906;2023-03-23T08:16:38;14.40;;;1.93;;
70369;SDS011;57790;51.356;-2.906;2023-03-23T08:19:39;10.90;;;1.42;;
70369;SDS011;57790;51.356;-2.906;2023-03-23T08:22:42;14.53;;;1.50;;
70369;SDS011;57790;51.356;-2.906;2023-03-23T08:25:45;17.88;;;1.63;;
70369;SDS011;57790;51.356;-2.906;2023-03-23T08:28:46;13.50;;;1.42;;
70369;SDS011;57790;51.356;-2.906;2023-03-23T08:31:47;12.30;;;1.60;;
70369;SDS011;57790;51.356;-2.906;2023-03-23T08:34:47;12.18;;;1.50;;
70369;SDS011;57790;51.356;-2.906;2023-03-23T08:37:48;14.27;;;1.53;;
70369;SDS011;57790;51.356;-2.906;2023-03-23T08:40:51;13.32;;;1.88;;
70369;SDS011;57790;51.356;-2.906;2023-03-23T08:43:52;11.27;;;1.70;;
70369;SDS011;57790;51.356;-2.906;2023-03-23T08:46:52;13.87;;;1.57;;
70369;SDS011;57790;51.356;-2.906;2023-03-23T08:49:56;10.30;;;1.40;;
70369;SDS011;57790;51.356;-2.906;2023-03-23T08:52:57;12.77;;;1.53;;
70369;SDS011;57790;51.356;-2.906;2023-03-23T08:56:05;13.57;;;1.48;;
70369;SDS011;57790;51.356;-2.906;2023-03-23T08:59:07;11.17;;;1.70;;
70369;SDS011;57790;51.356;-2.906;2023-03-23T09:02:12;12.80;;;1.60;;
70369;SDS011;57790;51.356;-2.906;2023-03-23T09:05:13;13.50;;;1.38;;
70369;SDS011;57790;51.356;-2.906;2023-03-23T09:08:14;15.00;;;1.50;;
70369;SDS011;57790;51.356;-2.906;2023-03-23T09:11:15;12.00;;;1.30;;
70369;SDS011;57790;51.356;-2.906;2023-03-23T09:14:16;9.73;;;1.63;;
70369;SDS011;57790;51.356;-2.906;2023-03-23T09:17:17;12.77;;;1.50;;
70369;SDS011;57790;51.356;-2.906;2023-03-23T09:20:18;13.77;;;1.97;;
70369;SDS011;57790;51.356;-2.906;2023-03-23T09:23:20;11.90;;;1.50;;
70369;SDS011;57790;51.356;-2.906;2023-03-23T09:26:21;10.17;;;1.53;;
70369;SDS011;57790;51.356;-2.906;2023-03-23T09:29:21;13.97;;;1.30;;
70369;SDS011;57790;51.356;-2.906;2023-03-23T09:32:22;12.07;;;1.47;;
70369;SDS011;57790;51.356;-2.906;2023-03-23T09:35:22;12.03;;;1.43;;
70369;SDS011;57790;51.356;-2.906;2023-03-23T09:38:24;11.13;;;1.40;;
70369;SDS011;57790;51.356;-2.906;2023-03-23T09:44:37;10.95;;;1.30;;
70369;SDS011;57790;51.356;-2.906;2023-03-23T09:51:45;13.85;;;1.88;;
70369;SDS011;57790;51.356;-2.906;2023-03-23T09:54:51;15.00;;;1.90;;
70369;SDS011;57790;51.356;-2.906;2023-03-23T09:58:09;14.07;;;1.58;;
70369;SDS011;57790;51.356;-2.906;2023-03-23T10:01:17;11.48;;;1.80;;
70369;SDS011;57790;51.356;-2.906;2023-03-23T10:04:36;13.68;;;1.70;;
70369;SDS011;57790;51.356;-2.906;2023-03-23T10:07:41;12.77;;;1.87;;
70369;SDS011;57790;51.356;-2.906;2023-03-23T10:14:14;9.40;;;1.10;;
70369;SDS011;57790;51.356;-2.906;2023-03-23T10:30:53;11.38;;;1.45;;
70369;SDS011;57790;51.356;-2.906;2023-03-23T10:33:59;13.27;;;1.50;;
70369;SDS011;57790;51.356;-2.906;2023-03-23T10:40:21;9.07;;;1.05;;
70369;SDS011;57790;51.356;-2.906;2023-03-23T10:43:26;11.38;;;1.63;;
70369;SDS011;57790;51.356;-2.906;2023-03-23T10:49:41;10.65;;;1.50;;
70369;SDS011;57790;51.356;-2.906;2023-03-23T10:52:47;14.32;;;1.55;;
70369;SDS011;57790;51.356;-2.906;2023-03-23T10:55:52;13.70;;;1.63;;
70369;SDS011;57790;51.356;-2.906;2023-03-23T10:58:54;14.40;;;2.20;;
70369;SDS011;57790;51.356;-2.906;2023-03-23T11:01:55;9.07;;;1.38;;
70369;SDS011;57790;51.356;-2.906;2023-03-23T11:05:01;11.55;;;1.30;;
70369;SDS011;57790;51.356;-2.906;2023-03-23T11:08:10;10.00;;;2.03;;
70369;SDS011;57790;51.356;-2.906;2023-03-23T11:11:26;10.87;;;1.73;;
70369;SDS011;57790;51.356;-2.906;2023-03-23T11:17:34;12.35;;;1.50;;
70369;SDS011;57790;51.356;-2.906;2023-03-23T11:20:35;10.37;;;1.30;;
70369;SDS011;57790;51.356;-2.906;2023-03-23T11:23:40;10.00;;;1.67;;
70369;SDS011;57790;51.356;-2.906;2023-03-23T11:26:43;12.65;;;1.40;;
70369;SDS011;57790;51.356;-2.906;2023-03-23T11:29:55;8.37;;;1.40;;
70369;SDS011;57790;51.356;-2.906;2023-03-23T11:33:00;11.50;;;1.60;;
70369;SDS011;57790;51.356;-2.906;2023-03-23T11:36:02;10.30;;;1.35;;
70369;SDS011;57790;51.356;-2.906;2023-03-23T11:39:25;12.35;;;1.67;;
70369;SDS011;57790;51.356;-2.906;2023-03-23T11:42:25;11.03;;;1.63;;
70369;SDS011;57790;51.356;-2.906;2023-03-23T11:45:38;10.70;;;1.80;;
70369;SDS011;57790;51.356;-2.906;2023-03-23T11:48:52;12.75;;;1.48;;
70369;SDS011;57790;51.356;-2.906;2023-03-23T11:52:25;11.77;;;1.60;;
70369;SDS011;57790;51.356;-2.906;2023-03-23T11:58:48;10.67;;;1.20;;
70369;SDS011;57790;51.356;-2.906;2023-03-23T12:05:34;15.00;;;1.67;;
70369;SDS011;57790;51.356;-2.906;2023-03-23T12:28:32;11.60;;;1.47;;
70369;SDS011;57790;51.356;-2.906;2023-03-23T12:38:37;12.32;;;1.85;;
70369;SDS011;57790;51.356;-2.906;2023-03-23T12:41:56;15.52;;;1.80;;
70369;SDS011;57790;51.356;-2.906;2023-03-23T12:48:22;11.18;;;1.40;;
70369;SDS011;57790;51.356;-2.906;2023-03-23T12:51:28;17.35;;;1.95;;
70369;SDS011;57790;51.356;-2.906;2023-03-23T13:01:04;17.50;;;1.77;;
70369;SDS011;57790;51.356;-2.906;2023-03-23T13:04:14;14.55;;;1.50;;
70369;SDS011;57790;51.356;-2.906;2023-03-23T13:07:21;13.57;;;1.80;;
70369;SDS011;57790;51.356;-2.906;2023-03-23T13:10:28;14.90;;;1.90;;
70369;SDS011;57790;51.356;-2.906;2023-03-23T13:21:00;16.00;;;1.83;;
70369;SDS011;57790;51.356;-2.906;2023-03-23T13:24:10;18.17;;;2.75;;
70369;SDS011;57790;51.356;-2.906;2023-03-23T13:27:16;18.27;;;1.83;;
70369;SDS011;57790;51.356;-2.906;2023-03-23T13:30:18;13.48;;;2.03;;
70369;SDS011;57790;51.356;-2.906;2023-03-23T13:33:24;17.83;;;1.90;;
70369;SDS011;57790;51.356;-2.906;2023-03-23T13:39:55;14.77;;;1.80;;
70369;SDS011;57790;51.356;-2.906;2023-03-23T13:42:59;11.43;;;2.00;;
70369;SDS011;57790;51.356;-2.906;2023-03-23T13:46:11;14.80;;;1.90;;
70369;SDS011;57790;51.356;-2.906;2023-03-23T13:49:16;14.77;;;2.28;;
70369;SDS011;57790;51.356;-2.906;2023-03-23T13:55:48;15.73;;;1.65;;
70369;SDS011;57790;51.356;-2.906;2023-03-23T13:58:52;10.85;;;1.60;;
70369;SDS011;57790;51.356;-2.906;2023-03-23T14:05:31;10.40;;;2.10;;
70369;SDS011;57790;51.356;-2.906;2023-03-23T14:08:40;10.48;;;1.70;;
70369;SDS011;57790;51.356;-2.906;2023-03-23T14:12:02;11.50;;;1.75;;
70369;SDS011;57790;51.356;-2.906;2023-03-23T14:15:11;12.55;;;1.98;;
70369;SDS011;57790;51.356;-2.906;2023-03-23T14:18:14;11.50;;;1.70;;
70369;SDS011;57790;51.356;-2.906;2023-03-23T14:21:16;12.95;;;1.42;;
70369;SDS011;57790;51.356;-2.906;2023-03-23T14:24:26;13.35;;;2.42;;
70369;SDS011;57790;51.356;-2.906;2023-03-23T14:27:28;12.45;;;1.50;;
70369;SDS011;57790;51.356;-2.906;2023-03-23T14:30:34;11.13;;;2.40;;
70369;SDS011;57790;51.356;-2.906;2023-03-23T14:33:37;11.02;;;1.50;;
70369;SDS011;57790;51.356;-2.906;2023-03-23T14:36:38;12.90;;;1.77;;
70369;SDS011;57790;51.356;-2.906;2023-03-23T14:39:40;8.03;;;1.57;;
70369;SDS011;57790;51.356;-2.906;2023-03-23T14:42:45;12.80;;;1.42;;
70369;SDS011;57790;51.356;-2.906;2023-03-23T14:45:47;10.45;;;1.40;;
70369;SDS011;57790;51.356;-2.906;2023-03-23T14:48:52;11.73;;;1.30;;
70369;SDS011;57790;51.356;-2.906;2023-03-23T14:51:53;10.50;;;1.23;;
70369;SDS011;57790;51.356;-2.906;2023-03-23T14:55:04;12.32;;;1.60;;
70369;SDS011;57790;51.356;-2.906;2023-03-23T14:58:13;8.05;;;1.00;;
70369;SDS011;57790;51.356;-2.906;2023-03-23T15:01:23;11.85;;;1.30;;
70369;SDS011;57790;51.356;-2.906;2023-03-23T15:04:27;11.43;;;1.97;;
70369;SDS011;57790;51.356;-2.906;2023-03-23T15:07:32;9.40;;;1.25;;
70369;SDS011;57790;51.356;-2.906;2023-03-23T15:10:35;11.68;;;1.50;;
70369;SDS011;57790;51.356;-2.906;2023-03-23T15:13:36;8.77;;;1.27;;
70369;SDS011;57790;51.356;-2.906;2023-03-23T15:16:36;8.07;;;1.33;;
70369;SDS011;57790;51.356;-2.906;2023-03-23T15:19:41;10.40;;;1.55;;
70369;SDS011;57790;51.356;-2.906;2023-03-23T15:22:46;9.45;;;1.30;;
70369;SDS011;57790;51.356;-2.906;2023-03-23T15:25:49;11.40;;;1.63;;
70369;SDS011;57790;51.356;-2.906;2023-03-23T15:29:00;7.63;;;1.17;;
70369;SDS011;57790;51.356;-2.906;2023-03-23T15:32:02;8.30;;;1.15;;
70369;SDS011;57790;51.356;-2.906;2023-03-23T15:35:04;7.78;;;1.27;;
70369;SDS011;57790;51.356;-2.906;2023-03-23T15:38:18;6.27;;;1.03;;
70369;SDS011;57790;51.356;-2.906;2023-03-23T15:41:24;11.00;;;1.40;;
70369;SDS011;57790;51.356;-2.906;2023-03-23T15:44:30;8.90;;;1.30;;
70369;SDS011;57790;51.356;-2.906;2023-03-23T15:50:42;6.88;;;1.13;;
70369;SDS011;57790;51.356;-2.906;2023-03-23T15:53:44;7.03;;;1.10;;
70369;SDS011;57790;51.356;-2.906;2023-03-23T15:56:45;7.40;;;1.10;;
70369;SDS011;57790;51.356;-2.906;2023-03-23T15:59:45;8.63;;;1.03;;
70369;SDS011;57790;51.356;-2.906;2023-03-23T16:02:46;6.22;;;1.00;;
70369;SDS011;57790;51.356;-2.906;2023-03-23T16:05:52;7.37;;;1.37;;
70369;SDS011;57790;51.356;-2.906;2023-03-23T16:08:56;8.25;;;1.05;;
70369;SDS011;57790;51.356;-2.906;2023-03-23T16:11:57;8.27;;;1.63;;
70369;SDS011;57790;51.356;-2.906;2023-03-23T16:14:58;4.93;;;1.00;;
70369;SDS011;57790;51.356;-2.906;2023-03-23T16:17:58;7.73;;;1.23;;
70369;SDS011;57790;51.356;-2.906;2023-03-23T16:20:59;6.73;;;1.13;;
70369;SDS011;57790;51.356;-2.906;2023-03-23T16:24:00;8.77;;;1.33;;
70369;SDS011;57790;51.356;-2.906;2023-03-23T16:27:01;9.02;;;1.10;;
70369;SDS011;57790;51.356;-2.906;2023-03-23T16:30:07;9.50;;;1.53;;
70369;SDS011;57790;51.356;-2.906;2023-03-23T16:33:14;6.43;;;1.30;;
70369;SDS011;57790;51.356;-2.906;2023-03-23T16:36:14;7.20;;;1.23;;
70369;SDS011;57790;51.356;-2.906;2023-03-23T16:39:15;7.63;;;1.20;;
70369;SDS011;57790;51.356;-2.906;2023-03-23T16:42:17;5.47;;;1.13;;
70369;SDS011;57790;51.356;-2.906;2023-03-23T16:45:18;6.40;;;0.90;;
70369;SDS011;57790;51.356;-2.906;2023-03-23T16:48:19;7.93;;;1.10;;
70369;SDS011;57790;51.356;-2.906;2023-03-23T16:51:19;7.50;;;1.27;;
70369;SDS011;57790;51.356;-2.906;2023-03-23T16:54:20;6.50;;;1.27;;
70369;SDS011;57790;51.356;-2.906;2023-03-23T16:57:21;6.40;;;0.97;;
70369;SDS011;57790;51.356;-2.906;2023-03-23T17:00:21;6.60;;;1.10;;
70369;SDS011;57790;51.356;-2.906;2023-03-23T17:03:22;8.30;;;1.20;;
70369;SDS011;57790;51.356;-2.906;2023-03-23T17:06:23;8.07;;;0.93;;
70369;SDS011;57790;51.356;-2.906;2023-03-23T17:09:26;5.32;;;0.88;;
70369;SDS011;57790;51.356;-2.906;2023-03-23T17:12:27;6.47;;;0.87;;
70369;SDS011;57790;51.356;-2.906;2023-03-23T17:15:28;7.18;;;1.42;;
70369;SDS011;57790;51.356;-2.906;2023-03-23T17:18:28;7.43;;;0.80;;
70369;SDS011;57790;51.356;-2.906;2023-03-23T17:21:29;6.17;;;0.93;;
70369;SDS011;57790;51.356;-2.906;2023-03-23T17:24:30;7.53;;;0.93;;
70369;SDS011;57790;51.356;-2.906;2023-03-23T17:27:30;6.20;;;1.00;;
70369;SDS011;57790;51.356;-2.906;2023-03-23T17:30:31;5.20;;;1.10;;
70369;SDS011;57790;51.356;-2.906;2023-03-23T17:33:31;3.80;;;0.70;;
70369;SDS011;57790;51.356;-2.906;2023-03-23T17:36:32;4.00;;;1.00;;
70369;SDS011;57790;51.356;-2.906;2023-03-23T17:39:33;5.27;;;0.90;;
70369;SDS011;57790;51.356;-2.906;2023-03-23T17:42:33;4.27;;;0.80;;
70369;SDS011;57790;51.356;-2.906;2023-03-23T17:45:34;5.53;;;0.80;;
70369;SDS011;57790;51.356;-2.906;2023-03-23T17:48:35;4.97;;;0.80;;
70369;SDS011;57790;51.356;-2.906;2023-03-23T17:51:36;4.55;;;0.70;;
70369;SDS011;57790;51.356;-2.906;2023-03-23T17:54:36;5.20;;;1.00;;
70369;SDS011;57790;51.356;-2.906;2023-03-23T17:57:36;3.90;;;0.80;;
70369;SDS011;57790;51.356;-2.906;2023-03-23T18:00:37;6.20;;;0.93;;
70369;SDS011;57790;51.356;-2.906;2023-03-23T18:03:38;5.15;;;0.85;;
70369;SDS011;57790;51.356;-2.906;2023-03-23T18:06:38;5.57;;;1.00;;
70369;SDS011;57790;51.356;-2.906;2023-03-23T18:09:39;4.87;;;0.87;;
70369;SDS011;57790;51.356;-2.906;2023-03-23T18:12:39;4.78;;;0.75;;
70369;SDS011;57790;51.356;-2.906;2023-03-23T18:15:42;3.90;;;0.70;;
70369;SDS011;57790;51.356;-2.906;2023-03-23T18:18:43;5.88;;;1.00;;
70369;SDS011;57790;51.356;-2.906;2023-03-23T18:21:45;6.50;;;1.30;;
70369;SDS011;57790;51.356;-2.906;2023-03-23T18:24:45;6.00;;;1.17;;
70369;SDS011;57790;51.356;-2.906;2023-03-23T18:27:46;5.82;;;1.08;;
70369;SDS011;57790;51.356;-2.906;2023-03-23T18:30:47;4.30;;;0.90;;
70369;SDS011;57790;51.356;-2.906;2023-03-23T18:33:48;6.30;;;1.50;;
70369;SDS011;57790;51.356;-2.906;2023-03-23T18:36:50;6.53;;;1.30;;
70369;SDS011;57790;51.356;-2.906;2023-03-23T18:39:50;5.63;;;1.00;;
70369;SDS011;57790;51.356;-2.906;2023-03-23T18:42:52;5.53;;;0.80;;
70369;SDS011;57790;51.356;-2.906;2023-03-23T18:45:56;5.10;;;1.00;;
70369;SDS011;57790;51.356;-2.906;2023-03-23T18:48:56;5.47;;;1.30;;
70369;SDS011;57790;51.356;-2.906;2023-03-23T18:51:56;5.93;;;1.10;;
70369;SDS011;57790;51.356;-2.906;2023-03-23T18:54:57;4.97;;;0.90;;
70369;SDS011;57790;51.356;-2.906;2023-03-23T18:57:58;7.50;;;1.10;;
70369;SDS011;57790;51.356;-2.906;2023-03-23T19:01:03;4.45;;;0.90;;
70369;SDS011;57790;51.356;-2.906;2023-03-23T19:04:06;6.93;;;1.35;;
70369;SDS011;57790;51.356;-2.906;2023-03-23T19:07:06;5.90;;;1.00;;
70369;SDS011;57790;51.356;-2.906;2023-03-23T19:10:07;5.00;;;1.00;;
70369;SDS011;57790;51.356;-2.906;2023-03-23T19:13:07;6.18;;;0.90;;
70369;SDS011;57790;51.356;-2.906;2023-03-23T19:16:09;4.33;;;0.70;;
70369;SDS011;57790;51.356;-2.906;2023-03-23T19:19:09;4.07;;;0.90;;
70369;SDS011;57790;51.356;-2.906;2023-03-23T19:22:11;4.05;;;0.80;;
70369;SDS011;57790;51.356;-2.906;2023-03-23T19:25:12;3.67;;;0.70;;
70369;SDS011;57790;51.356;-2.906;2023-03-23T19:28:13;4.53;;;0.88;;
70369;SDS011;57790;51.356;-2.906;2023-03-23T19:31:14;4.55;;;1.00;;
70369;SDS011;57790;51.356;-2.906;2023-03-23T19:34:15;3.83;;;0.80;;
70369;SDS011;57790;51.356;-2.906;2023-03-23T19:37:17;3.50;;;0.73;;
70369;SDS011;57790;51.356;-2.906;2023-03-23T19:40:17;5.05;;;0.90;;
70369;SDS011;57790;51.356;-2.906;2023-03-23T19:43:19;2.97;;;0.67;;
70369;SDS011;57790;51.356;-2.906;2023-03-23T19:46:20;3.97;;;0.90;;
70369;SDS011;57790;51.356;-2.906;2023-03-23T19:49:20;5.63;;;0.83;;
70369;SDS011;57790;51.356;-2.906;2023-03-23T19:52:21;3.77;;;0.73;;